sensor_id;sensor_type;location;lat;lon;timestamp;P1;durP1;ratioP1;P2;durP2;ratioP2
14052;SDS011;7101;51.600;7.310;2023-05-16T00:02:21;12.65;;;10.65;;
14052;SDS011;7101;51.600;7.310;2023-05-16T00:04:49;13.20;;;11.27;;
14052;SDS011;7101;51.600;7.310;2023-05-16T00:07:16;11.63;;;10.43;;
14052;SDS011;7101;51.600;7.310;2023-05-16T00:09:43;13.30;;;9.55;;
14052;SDS011;7101;51.600;7.310;2023-05-16T00:12:12;12.00;;;9.73;;
14052;SDS011;7101;51.600;7.310;2023-05-16T00:14:39;15.73;;;9.30;;
14052;SDS011;7101;51.600;7.310;2023-05-16T00:17:06;14.68;;;9.68;;
14052;SDS011;7101;51.600;7.310;2023-05-16T00:19:35;13.38;;;9.52;;
14052;SDS011;7101;51.600;7.310;2023-05-16T00:22:05;11.82;;;9.50;;
14052;SDS011;7101;51.600;7.310;2023-05-16T00:24:32;10.02;;;8.48;;
14052;SDS011;7101;51.600;7.310;2023-05-16T00:26:59;11.70;;;8.27;;
14052;SDS011;7101;51.600;7.310;2023-05-16T00:29:28;11.43;;;8.40;;
14052;SDS011;7101;51.600;7.310;2023-05-16T00:31:55;11.65;;;8.30;;
14052;SDS011;7101;51.600;7.310;2023-05-16T00:34:22;9.32;;;7.38;;
14052;SDS011;7101;51.600;7.310;2023-05-16T00:36:48;7.70;;;6.72;;
14052;SDS011;7101;51.600;7.310;2023-05-16T00:39:17;7.40;;;6.03;;
14052;SDS011;7101;51.600;7.310;2023-05-16T00:41:44;6.90;;;5.85;;
14052;SDS011;7101;51.600;7.310;2023-05-16T00:44:11;6.38;;;5.65;;
14052;SDS011;7101;51.600;7.310;2023-05-16T00:46:38;7.28;;;5.72;;
14052;SDS011;7101;51.600;7.310;2023-05-16T00:49:05;7.65;;;6.30;;
14052;SDS011;7101;51.600;7.310;2023-05-16T00:51:32;8.45;;;5.68;;
14052;SDS011;7101;51.600;7.310;2023-05-16T00:54:00;6.85;;;5.35;;
14052;SDS011;7101;51.600;7.310;2023-05-16T00:56:29;7.38;;;5.40;;
14052;SDS011;7101;51.600;7.310;2023-05-16T00:58:56;7.43;;;4.45;;
14052;SDS011;7101;51.600;7.310;2023-05-16T01:01:25;6.90;;;4.57;;
14052;SDS011;7101;51.600;7.310;2023-05-16T01:03:54;5.60;;;4.25;;
14052;SDS011;7101;51.600;7.310;2023-05-16T01:06:21;5.22;;;4.18;;
14052;SDS011;7101;51.600;7.310;2023-05-16T01:08:48;4.38;;;3.75;;
14052;SDS011;7101;51.600;7.310;2023-05-16T01:11:18;3.83;;;3.30;;
14052;SDS011;7101;51.600;7.310;2023-05-16T01:13:56;3.45;;;3.13;;
14052;SDS011;7101;51.600;7.310;2023-05-16T01:16:38;4.28;;;2.72;;
14052;SDS011;7101;51.600;7.310;2023-05-16T01:19:13;4.07;;;2.63;;
14052;SDS011;7101;51.600;7.310;2023-05-16T01:21:47;2.63;;;2.15;;
14052;SDS011;7101;51.600;7.310;2023-05-16T01:24:21;4.43;;;2.15;;
14052;SDS011;7101;51.600;7.310;2023-05-16T01:26:54;5.43;;;1.80;;
14052;SDS011;7101;51.600;7.310;2023-05-16T01:29:24;3.25;;;1.60;;
14052;SDS011;7101;51.600;7.310;2023-05-16T01:31:51;3.05;;;1.70;;
14052;SDS011;7101;51.600;7.310;2023-05-16T01:34:18;4.78;;;1.80;;
14052;SDS011;7101;51.600;7.310;2023-05-16T01:36:47;7.00;;;2.20;;
14052;SDS011;7101;51.600;7.310;2023-05-16T01:39:21;6.00;;;2.35;;
14052;SDS011;7101;51.600;7.310;2023-05-16T01:42:00;9.25;;;3.13;;
14052;SDS011;7101;51.600;7.310;2023-05-16T01:44:35;11.45;;;2.70;;
14052;SDS011;7101;51.600;7.310;2023-05-16T01:47:06;10.07;;;2.83;;
14052;SDS011;7101;51.600;7.310;2023-05-16T01:49:38;8.70;;;3.00;;
14052;SDS011;7101;51.600;7.310;2023-05-16T01:52:12;8.60;;;2.72;;
14052;SDS011;7101;51.600;7.310;2023-05-16T01:54:44;10.32;;;3.30;;
14052;SDS011;7101;51.600;7.310;2023-05-16T01:57:16;8.90;;;3.10;;
14052;SDS011;7101;51.600;7.310;2023-05-16T01:59:45;14.65;;;3.67;;
14052;SDS011;7101;51.600;7.310;2023-05-16T02:02:12;11.05;;;3.03;;
14052;SDS011;7101;51.600;7.310;2023-05-16T02:04:39;10.75;;;2.92;;
14052;SDS011;7101;51.600;7.310;2023-05-16T02:07:06;11.02;;;2.88;;
14052;SDS011;7101;51.600;7.310;2023-05-16T02:09:33;12.13;;;3.10;;
14052;SDS011;7101;51.600;7.310;2023-05-16T02:12:00;10.73;;;3.00;;
14052;SDS011;7101;51.600;7.310;2023-05-16T02:14:28;9.90;;;3.28;;
14052;SDS011;7101;51.600;7.310;2023-05-16T02:16:55;11.52;;;3.13;;
14052;SDS011;7101;51.600;7.310;2023-05-16T02:19:23;12.02;;;3.20;;
14052;SDS011;7101;51.600;7.310;2023-05-16T02:21:50;8.73;;;3.22;;
14052;SDS011;7101;51.600;7.310;2023-05-16T02:24:17;13.73;;;3.17;;
14052;SDS011;7101;51.600;7.310;2023-05-16T02:26:43;11.80;;;3.33;;
14052;SDS011;7101;51.600;7.310;2023-05-16T02:29:10;13.02;;;3.78;;
14052;SDS011;7101;51.600;7.310;2023-05-16T02:31:40;9.82;;;3.17;;
14052;SDS011;7101;51.600;7.310;2023-05-16T02:34:07;11.70;;;3.22;;
14052;SDS011;7101;51.600;7.310;2023-05-16T02:36:35;9.52;;;3.70;;
14052;SDS011;7101;51.600;7.310;2023-05-16T02:39:03;16.10;;;3.80;;
14052;SDS011;7101;51.600;7.310;2023-05-16T02:41:29;14.27;;;3.65;;
14052;SDS011;7101;51.600;7.310;2023-05-16T02:43:57;9.70;;;3.10;;
14052;SDS011;7101;51.600;7.310;2023-05-16T02:46:24;10.65;;;3.15;;
14052;SDS011;7101;51.600;7.310;2023-05-16T02:48:53;13.25;;;3.28;;
14052;SDS011;7101;51.600;7.310;2023-05-16T02:51:21;15.07;;;3.53;;
14052;SDS011;7101;51.600;7.310;2023-05-16T02:53:48;14.02;;;3.25;;
14052;SDS011;7101;51.600;7.310;2023-05-16T02:56:16;12.52;;;3.78;;
14052;SDS011;7101;51.600;7.310;2023-05-16T02:58:45;11.20;;;3.47;;
14052;SDS011;7101;51.600;7.310;2023-05-16T03:01:13;11.95;;;3.80;;
14052;SDS011;7101;51.600;7.310;2023-05-16T03:03:41;11.98;;;2.92;;
14052;SDS011;7101;51.600;7.310;2023-05-16T03:06:09;15.63;;;3.45;;
14052;SDS011;7101;51.600;7.310;2023-05-16T03:08:36;20.33;;;3.70;;
14052;SDS011;7101;51.600;7.310;2023-05-16T03:11:05;18.35;;;3.92;;
14052;SDS011;7101;51.600;7.310;2023-05-16T03:13:33;10.88;;;3.30;;
14052;SDS011;7101;51.600;7.310;2023-05-16T03:16:00;18.90;;;3.72;;
14052;SDS011;7101;51.600;7.310;2023-05-16T03:18:31;16.02;;;4.03;;
14052;SDS011;7101;51.600;7.310;2023-05-16T03:20:58;18.25;;;3.28;;
14052;SDS011;7101;51.600;7.310;2023-05-16T03:23:27;10.05;;;3.65;;
14052;SDS011;7101;51.600;7.310;2023-05-16T03:25:54;15.32;;;3.63;;
14052;SDS011;7101;51.600;7.310;2023-05-16T03:28:21;16.95;;;3.83;;
14052;SDS011;7101;51.600;7.310;2023-05-16T03:30:48;12.18;;;3.28;;
14052;SDS011;7101;51.600;7.310;2023-05-16T03:33:15;13.38;;;3.50;;
14052;SDS011;7101;51.600;7.310;2023-05-16T03:35:43;14.38;;;3.20;;
14052;SDS011;7101;51.600;7.310;2023-05-16T03:38:13;17.15;;;3.22;;
14052;SDS011;7101;51.600;7.310;2023-05-16T03:40:41;15.65;;;2.95;;
14052;SDS011;7101;51.600;7.310;2023-05-16T03:43:08;16.98;;;3.60;;
14052;SDS011;7101;51.600;7.310;2023-05-16T03:45:37;10.68;;;2.70;;
14052;SDS011;7101;51.600;7.310;2023-05-16T03:48:04;17.58;;;3.60;;
14052;SDS011;7101;51.600;7.310;2023-05-16T03:50:31;20.05;;;3.58;;
14052;SDS011;7101;51.600;7.310;2023-05-16T03:52:58;12.27;;;3.35;;
14052;SDS011;7101;51.600;7.310;2023-05-16T03:55:25;15.48;;;3.35;;
14052;SDS011;7101;51.600;7.310;2023-05-16T03:57:53;17.92;;;3.45;;
14052;SDS011;7101;51.600;7.310;2023-05-16T04:00:20;17.50;;;3.83;;
14052;SDS011;7101;51.600;7.310;2023-05-16T04:02:47;13.63;;;2.55;;
14052;SDS011;7101;51.600;7.310;2023-05-16T04:05:14;13.35;;;3.10;;
14052;SDS011;7101;51.600;7.310;2023-05-16T04:07:42;16.25;;;3.47;;
14052;SDS011;7101;51.600;7.310;2023-05-16T04:10:09;13.63;;;3.53;;
14052;SDS011;7101;51.600;7.310;2023-05-16T04:12:39;16.77;;;3.22;;
14052;SDS011;7101;51.600;7.310;2023-05-16T04:15:07;18.55;;;3.45;;
14052;SDS011;7101;51.600;7.310;2023-05-16T04:17:35;11.77;;;3.50;;
14052;SDS011;7101;51.600;7.310;2023-05-16T04:20:02;16.92;;;3.42;;
14052;SDS011;7101;51.600;7.310;2023-05-16T04:22:29;13.93;;;3.40;;
14052;SDS011;7101;51.600;7.310;2023-05-16T04:24:56;17.15;;;3.53;;
14052;SDS011;7101;51.600;7.310;2023-05-16T04:27:23;16.88;;;2.92;;
14052;SDS011;7101;51.600;7.310;2023-05-16T04:29:50;21.60;;;3.42;;
14052;SDS011;7101;51.600;7.310;2023-05-16T04:32:19;13.05;;;3.33;;
14052;SDS011;7101;51.600;7.310;2023-05-16T04:34:45;14.90;;;3.15;;
14052;SDS011;7101;51.600;7.310;2023-05-16T04:37:17;17.38;;;3.42;;
14052;SDS011;7101;51.600;7.310;2023-05-16T04:39:44;14.38;;;2.90;;
14052;SDS011;7101;51.600;7.310;2023-05-16T04:42:11;15.35;;;2.90;;
14052;SDS011;7101;51.600;7.310;2023-05-16T04:44:38;13.95;;;3.25;;
14052;SDS011;7101;51.600;7.310;2023-05-16T04:47:06;14.13;;;2.83;;
14052;SDS011;7101;51.600;7.310;2023-05-16T04:49:34;12.70;;;3.17;;
14052;SDS011;7101;51.600;7.310;2023-05-16T04:52:01;12.73;;;2.80;;
14052;SDS011;7101;51.600;7.310;2023-05-16T04:54:28;16.55;;;2.70;;
14052;SDS011;7101;51.600;7.310;2023-05-16T04:56:55;12.35;;;2.50;;
14052;SDS011;7101;51.600;7.310;2023-05-16T04:59:22;8.23;;;2.33;;
14052;SDS011;7101;51.600;7.310;2023-05-16T05:01:49;13.80;;;2.97;;
14052;SDS011;7101;51.600;7.310;2023-05-16T05:04:16;14.05;;;2.85;;
14052;SDS011;7101;51.600;7.310;2023-05-16T05:06:46;7.85;;;2.47;;
14052;SDS011;7101;51.600;7.310;2023-05-16T05:09:12;13.73;;;2.90;;
14052;SDS011;7101;51.600;7.310;2023-05-16T05:11:39;12.23;;;2.78;;
14052;SDS011;7101;51.600;7.310;2023-05-16T05:14:06;12.98;;;2.90;;
14052;SDS011;7101;51.600;7.310;2023-05-16T05:16:33;11.23;;;2.92;;
14052;SDS011;7101;51.600;7.310;2023-05-16T05:19:01;15.07;;;2.83;;
14052;SDS011;7101;51.600;7.310;2023-05-16T05:21:28;10.50;;;2.40;;
14052;SDS011;7101;51.600;7.310;2023-05-16T05:23:57;11.07;;;3.00;;
14052;SDS011;7101;51.600;7.310;2023-05-16T05:26:24;10.50;;;2.60;;
14052;SDS011;7101;51.600;7.310;2023-05-16T05:28:52;15.48;;;2.78;;
14052;SDS011;7101;51.600;7.310;2023-05-16T05:31:19;14.05;;;2.88;;
14052;SDS011;7101;51.600;7.310;2023-05-16T05:33:45;12.93;;;2.42;;
14052;SDS011;7101;51.600;7.310;2023-05-16T05:36:14;9.25;;;2.50;;
14052;SDS011;7101;51.600;7.310;2023-05-16T05:38:42;15.40;;;2.90;;
14052;SDS011;7101;51.600;7.310;2023-05-16T05:41:11;10.80;;;2.47;;
14052;SDS011;7101;51.600;7.310;2023-05-16T05:43:38;14.73;;;3.00;;
14052;SDS011;7101;51.600;7.310;2023-05-16T05:46:05;11.05;;;2.63;;
14052;SDS011;7101;51.600;7.310;2023-05-16T05:48:34;11.50;;;2.95;;
14052;SDS011;7101;51.600;7.310;2023-05-16T05:51:03;11.95;;;2.70;;
14052;SDS011;7101;51.600;7.310;2023-05-16T05:53:32;9.75;;;2.60;;
14052;SDS011;7101;51.600;7.310;2023-05-16T05:55:59;9.60;;;2.65;;
14052;SDS011;7101;51.600;7.310;2023-05-16T05:58:27;11.32;;;2.20;;
14052;SDS011;7101;51.600;7.310;2023-05-16T06:00:54;8.88;;;2.67;;
14052;SDS011;7101;51.600;7.310;2023-05-16T06:03:21;10.73;;;2.58;;
14052;SDS011;7101;51.600;7.310;2023-05-16T06:05:48;13.68;;;3.33;;
14052;SDS011;7101;51.600;7.310;2023-05-16T06:08:15;10.35;;;2.55;;
14052;SDS011;7101;51.600;7.310;2023-05-16T06:10:42;11.90;;;2.90;;
14052;SDS011;7101;51.600;7.310;2023-05-16T06:13:08;12.73;;;2.80;;
14052;SDS011;7101;51.600;7.310;2023-05-16T06:15:37;11.48;;;2.80;;
14052;SDS011;7101;51.600;7.310;2023-05-16T06:18:04;11.27;;;2.58;;
14052;SDS011;7101;51.600;7.310;2023-05-16T06:20:31;11.75;;;2.55;;
14052;SDS011;7101;51.600;7.310;2023-05-16T06:22:57;8.35;;;2.22;;
14052;SDS011;7101;51.600;7.310;2023-05-16T06:25:25;11.82;;;2.50;;
14052;SDS011;7101;51.600;7.310;2023-05-16T06:27:52;9.68;;;2.33;;
14052;SDS011;7101;51.600;7.310;2023-05-16T06:30:19;9.80;;;2.17;;
14052;SDS011;7101;51.600;7.310;2023-05-16T06:32:48;9.95;;;2.15;;
14052;SDS011;7101;51.600;7.310;2023-05-16T06:35:16;9.68;;;2.40;;
14052;SDS011;7101;51.600;7.310;2023-05-16T06:37:43;6.75;;;2.13;;
14052;SDS011;7101;51.600;7.310;2023-05-16T06:40:10;10.90;;;2.65;;
14052;SDS011;7101;51.600;7.310;2023-05-16T06:42:37;10.35;;;2.67;;
14052;SDS011;7101;51.600;7.310;2023-05-16T06:45:05;10.77;;;2.50;;
14052;SDS011;7101;51.600;7.310;2023-05-16T06:47:33;9.07;;;2.40;;
14052;SDS011;7101;51.600;7.310;2023-05-16T06:50:01;10.48;;;2.38;;
14052;SDS011;7101;51.600;7.310;2023-05-16T06:52:29;11.18;;;2.70;;
14052;SDS011;7101;51.600;7.310;2023-05-16T06:54:59;8.60;;;2.70;;
14052;SDS011;7101;51.600;7.310;2023-05-16T06:57:26;13.38;;;2.45;;
14052;SDS011;7101;51.600;7.310;2023-05-16T06:59:54;12.27;;;2.58;;
14052;SDS011;7101;51.600;7.310;2023-05-16T07:02:21;10.60;;;2.85;;
14052;SDS011;7101;51.600;7.310;2023-05-16T07:04:48;12.20;;;2.47;;
14052;SDS011;7101;51.600;7.310;2023-05-16T07:07:16;9.45;;;2.50;;
14052;SDS011;7101;51.600;7.310;2023-05-16T07:09:43;14.98;;;2.38;;
14052;SDS011;7101;51.600;7.310;2023-05-16T07:12:11;12.80;;;2.70;;
14052;SDS011;7101;51.600;7.310;2023-05-16T07:14:38;9.98;;;2.15;;
14052;SDS011;7101;51.600;7.310;2023-05-16T07:17:06;12.23;;;2.33;;
14052;SDS011;7101;51.600;7.310;2023-05-16T07:19:34;11.15;;;2.40;;
14052;SDS011;7101;51.600;7.310;2023-05-16T07:22:04;11.18;;;1.92;;
14052;SDS011;7101;51.600;7.310;2023-05-16T07:24:32;8.30;;;2.15;;
14052;SDS011;7101;51.600;7.310;2023-05-16T07:27:00;9.02;;;2.20;;
14052;SDS011;7101;51.600;7.310;2023-05-16T07:29:27;8.20;;;2.20;;
14052;SDS011;7101;51.600;7.310;2023-05-16T07:31:55;11.38;;;2.97;;
14052;SDS011;7101;51.600;7.310;2023-05-16T07:34:22;8.10;;;2.08;;
14052;SDS011;7101;51.600;7.310;2023-05-16T07:36:49;7.03;;;2.10;;
14052;SDS011;7101;51.600;7.310;2023-05-16T07:39:16;11.20;;;2.10;;
14052;SDS011;7101;51.600;7.310;2023-05-16T07:41:45;13.25;;;2.58;;
14052;SDS011;7101;51.600;7.310;2023-05-16T07:44:11;5.85;;;1.85;;
14052;SDS011;7101;51.600;7.310;2023-05-16T07:46:38;9.55;;;1.80;;
14052;SDS011;7101;51.600;7.310;2023-05-16T07:49:06;8.23;;;1.95;;
14052;SDS011;7101;51.600;7.310;2023-05-16T07:51:34;8.00;;;1.73;;
14052;SDS011;7101;51.600;7.310;2023-05-16T07:54:01;5.78;;;1.80;;
14052;SDS011;7101;51.600;7.310;2023-05-16T07:56:27;3.53;;;1.33;;
14052;SDS011;7101;51.600;7.310;2023-05-16T07:58:56;6.45;;;1.60;;
14052;SDS011;7101;51.600;7.310;2023-05-16T08:01:22;4.45;;;1.45;;
14052;SDS011;7101;51.600;7.310;2023-05-16T08:03:51;5.88;;;1.35;;
14052;SDS011;7101;51.600;7.310;2023-05-16T08:06:19;7.90;;;1.83;;
14052;SDS011;7101;51.600;7.310;2023-05-16T08:08:46;7.32;;;1.85;;
14052;SDS011;7101;51.600;7.310;2023-05-16T08:11:14;5.00;;;1.55;;
14052;SDS011;7101;51.600;7.310;2023-05-16T08:13:41;7.53;;;1.50;;
14052;SDS011;7101;51.600;7.310;2023-05-16T08:16:11;9.15;;;1.98;;
14052;SDS011;7101;51.600;7.310;2023-05-16T08:18:38;5.85;;;1.60;;
14052;SDS011;7101;51.600;7.310;2023-05-16T08:21:06;5.57;;;1.60;;
14052;SDS011;7101;51.600;7.310;2023-05-16T08:23:33;8.63;;;1.33;;
14052;SDS011;7101;51.600;7.310;2023-05-16T08:26:01;4.32;;;1.73;;
14052;SDS011;7101;51.600;7.310;2023-05-16T08:28:28;5.18;;;1.30;;
14052;SDS011;7101;51.600;7.310;2023-05-16T08:30:56;5.70;;;1.77;;
14052;SDS011;7101;51.600;7.310;2023-05-16T08:33:24;5.45;;;1.58;;
14052;SDS011;7101;51.600;7.310;2023-05-16T08:35:51;6.05;;;1.40;;
14052;SDS011;7101;51.600;7.310;2023-05-16T08:38:18;7.38;;;1.77;;
14052;SDS011;7101;51.600;7.310;2023-05-16T08:40:45;7.15;;;1.40;;
14052;SDS011;7101;51.600;7.310;2023-05-16T08:43:12;7.20;;;1.52;;
14052;SDS011;7101;51.600;7.310;2023-05-16T08:45:39;8.40;;;1.60;;
14052;SDS011;7101;51.600;7.310;2023-05-16T08:48:08;7.72;;;1.70;;
14052;SDS011;7101;51.600;7.310;2023-05-16T08:50:38;5.20;;;1.33;;
14052;SDS011;7101;51.600;7.310;2023-05-16T08:53:07;6.47;;;1.67;;
14052;SDS011;7101;51.600;7.310;2023-05-16T08:55:37;6.50;;;1.63;;
14052;SDS011;7101;51.600;7.310;2023-05-16T08:58:07;8.80;;;1.85;;
14052;SDS011;7101;51.600;7.310;2023-05-16T09:00:34;8.60;;;1.50;;
14052;SDS011;7101;51.600;7.310;2023-05-16T09:03:01;8.32;;;1.95;;
14052;SDS011;7101;51.600;7.310;2023-05-16T09:05:29;7.50;;;1.73;;
14052;SDS011;7101;51.600;7.310;2023-05-16T09:07:57;7.82;;;1.80;;
14052;SDS011;7101;51.600;7.310;2023-05-16T09:10:25;6.32;;;1.73;;
14052;SDS011;7101;51.600;7.310;2023-05-16T09:12:52;6.13;;;1.58;;
14052;SDS011;7101;51.600;7.310;2023-05-16T09:15:20;4.75;;;1.60;;
14052;SDS011;7101;51.600;7.310;2023-05-16T09:17:47;5.47;;;1.60;;
14052;SDS011;7101;51.600;7.310;2023-05-16T09:20:14;7.60;;;1.83;;
14052;SDS011;7101;51.600;7.310;2023-05-16T09:22:49;3.13;;;1.17;;
14052;SDS011;7101;51.600;7.310;2023-05-16T09:25:19;5.50;;;1.45;;
14052;SDS011;7101;51.600;7.310;2023-05-16T09:27:47;5.38;;;1.58;;
14052;SDS011;7101;51.600;7.310;2023-05-16T09:30:16;5.93;;;1.63;;
14052;SDS011;7101;51.600;7.310;2023-05-16T09:32:50;9.50;;;1.98;;
14052;SDS011;7101;51.600;7.310;2023-05-16T09:35:18;8.02;;;1.67;;
14052;SDS011;7101;51.600;7.310;2023-05-16T09:37:45;4.80;;;1.30;;
14052;SDS011;7101;51.600;7.310;2023-05-16T09:40:12;5.72;;;1.48;;
14052;SDS011;7101;51.600;7.310;2023-05-16T09:42:43;5.53;;;1.30;;
14052;SDS011;7101;51.600;7.310;2023-05-16T09:45:10;4.88;;;1.55;;
14052;SDS011;7101;51.600;7.310;2023-05-16T09:47:38;7.72;;;1.95;;
14052;SDS011;7101;51.600;7.310;2023-05-16T09:50:12;7.05;;;1.40;;
14052;SDS011;7101;51.600;7.310;2023-05-16T09:52:40;7.78;;;1.63;;
14052;SDS011;7101;51.600;7.310;2023-05-16T09:55:08;5.90;;;1.33;;
14052;SDS011;7101;51.600;7.310;2023-05-16T09:57:38;5.28;;;1.30;;
14052;SDS011;7101;51.600;7.310;2023-05-16T10:00:09;5.85;;;1.67;;
14052;SDS011;7101;51.600;7.310;2023-05-16T10:02:37;4.72;;;1.38;;
14052;SDS011;7101;51.600;7.310;2023-05-16T10:05:05;4.88;;;1.40;;
14052;SDS011;7101;51.600;7.310;2023-05-16T10:07:32;6.15;;;1.40;;
14052;SDS011;7101;51.600;7.310;2023-05-16T10:10:02;4.13;;;1.30;;
14052;SDS011;7101;51.600;7.310;2023-05-16T10:12:31;7.35;;;1.60;;
14052;SDS011;7101;51.600;7.310;2023-05-16T10:14:59;5.63;;;1.50;;
14052;SDS011;7101;51.600;7.310;2023-05-16T10:17:34;3.60;;;1.40;;
14052;SDS011;7101;51.600;7.310;2023-05-16T10:20:06;6.63;;;1.50;;
14052;SDS011;7101;51.600;7.310;2023-05-16T10:22:38;5.57;;;1.40;;
14052;SDS011;7101;51.600;7.310;2023-05-16T10:27:38;5.22;;;1.63;;
14052;SDS011;7101;51.600;7.310;2023-05-16T10:30:05;4.60;;;1.20;;
14052;SDS011;7101;51.600;7.310;2023-05-16T10:32:36;4.07;;;1.08;;
14052;SDS011;7101;51.600;7.310;2023-05-16T10:35:04;5.82;;;1.17;;
14052;SDS011;7101;51.600;7.310;2023-05-16T10:37:32;4.40;;;1.30;;
14052;SDS011;7101;51.600;7.310;2023-05-16T10:40:00;3.50;;;1.27;;
14052;SDS011;7101;51.600;7.310;2023-05-16T10:42:31;3.00;;;1.30;;
14052;SDS011;7101;51.600;7.310;2023-05-16T10:45:07;7.32;;;1.48;;
14052;SDS011;7101;51.600;7.310;2023-05-16T10:47:42;4.55;;;1.40;;
14052;SDS011;7101;51.600;7.310;2023-05-16T10:50:29;5.10;;;1.50;;
14052;SDS011;7101;51.600;7.310;2023-05-16T10:53:09;5.25;;;1.15;;
14052;SDS011;7101;51.600;7.310;2023-05-16T10:55:43;3.78;;;1.30;;
14052;SDS011;7101;51.600;7.310;2023-05-16T10:58:17;7.82;;;1.30;;
14052;SDS011;7101;51.600;7.310;2023-05-16T11:00:49;3.55;;;1.25;;
14052;SDS011;7101;51.600;7.310;2023-05-16T11:03:40;5.90;;;1.40;;
14052;SDS011;7101;51.600;7.310;2023-05-16T11:06:27;6.47;;;1.40;;
14052;SDS011;7101;51.600;7.310;2023-05-16T11:08:57;4.97;;;1.30;;
14052;SDS011;7101;51.600;7.310;2023-05-16T11:11:42;5.80;;;1.38;;
14052;SDS011;7101;51.600;7.310;2023-05-16T11:14:16;4.47;;;1.20;;
14052;SDS011;7101;51.600;7.310;2023-05-16T11:16:47;6.15;;;1.52;;
14052;SDS011;7101;51.600;7.310;2023-05-16T11:22:11;3.65;;;1.35;;
14052;SDS011;7101;51.600;7.310;2023-05-16T11:24:53;3.50;;;1.15;;
14052;SDS011;7101;51.600;7.310;2023-05-16T11:27:23;6.10;;;1.52;;
14052;SDS011;7101;51.600;7.310;2023-05-16T11:29:58;5.43;;;1.55;;
14052;SDS011;7101;51.600;7.310;2023-05-16T11:32:28;3.92;;;1.40;;
14052;SDS011;7101;51.600;7.310;2023-05-16T11:34:58;5.35;;;1.52;;
14052;SDS011;7101;51.600;7.310;2023-05-16T11:37:25;3.88;;;1.35;;
14052;SDS011;7101;51.600;7.310;2023-05-16T11:39:52;4.50;;;1.40;;
14052;SDS011;7101;51.600;7.310;2023-05-16T11:42:23;2.92;;;1.00;;
14052;SDS011;7101;51.600;7.310;2023-05-16T11:45:02;8.18;;;1.80;;
14052;SDS011;7101;51.600;7.310;2023-05-16T11:47:34;5.28;;;1.55;;
14052;SDS011;7101;51.600;7.310;2023-05-16T11:50:04;5.15;;;1.23;;
14052;SDS011;7101;51.600;7.310;2023-05-16T11:52:32;4.55;;;1.20;;
14052;SDS011;7101;51.600;7.310;2023-05-16T11:55:00;7.50;;;1.60;;
14052;SDS011;7101;51.600;7.310;2023-05-16T11:57:28;5.45;;;1.50;;
14052;SDS011;7101;51.600;7.310;2023-05-16T11:59:58;5.53;;;1.38;;
14052;SDS011;7101;51.600;7.310;2023-05-16T12:02:31;4.20;;;1.38;;
14052;SDS011;7101;51.600;7.310;2023-05-16T12:04:58;3.92;;;1.27;;
14052;SDS011;7101;51.600;7.310;2023-05-16T12:07:29;7.20;;;1.48;;
14052;SDS011;7101;51.600;7.310;2023-05-16T12:09:56;4.95;;;1.20;;
14052;SDS011;7101;51.600;7.310;2023-05-16T12:12:24;3.85;;;1.20;;
14052;SDS011;7101;51.600;7.310;2023-05-16T12:14:53;5.72;;;1.30;;
14052;SDS011;7101;51.600;7.310;2023-05-16T12:17:20;4.18;;;1.60;;
14052;SDS011;7101;51.600;7.310;2023-05-16T12:19:47;3.90;;;1.13;;
14052;SDS011;7101;51.600;7.310;2023-05-16T12:22:15;3.70;;;1.45;;
14052;SDS011;7101;51.600;7.310;2023-05-16T12:24:43;6.03;;;1.23;;
14052;SDS011;7101;51.600;7.310;2023-05-16T12:27:11;5.82;;;1.35;;
14052;SDS011;7101;51.600;7.310;2023-05-16T12:29:38;3.17;;;1.08;;
14052;SDS011;7101;51.600;7.310;2023-05-16T12:32:06;3.40;;;1.15;;
14052;SDS011;7101;51.600;7.310;2023-05-16T12:34:33;3.00;;;1.27;;
14052;SDS011;7101;51.600;7.310;2023-05-16T12:37:00;5.22;;;1.30;;
14052;SDS011;7101;51.600;7.310;2023-05-16T12:39:27;4.53;;;1.10;;
14052;SDS011;7101;51.600;7.310;2023-05-16T12:42:06;4.47;;;1.40;;
14052;SDS011;7101;51.600;7.310;2023-05-16T12:44:33;5.40;;;1.48;;
14052;SDS011;7101;51.600;7.310;2023-05-16T12:47:01;3.97;;;1.30;;
14052;SDS011;7101;51.600;7.310;2023-05-16T12:49:31;5.28;;;1.42;;
14052;SDS011;7101;51.600;7.310;2023-05-16T12:51:58;4.50;;;1.38;;
14052;SDS011;7101;51.600;7.310;2023-05-16T12:54:29;7.70;;;1.45;;
14052;SDS011;7101;51.600;7.310;2023-05-16T12:56:59;4.18;;;1.25;;
14052;SDS011;7101;51.600;7.310;2023-05-16T12:59:28;4.72;;;1.20;;
14052;SDS011;7101;51.600;7.310;2023-05-16T13:01:55;4.63;;;1.40;;
14052;SDS011;7101;51.600;7.310;2023-05-16T13:04:22;4.82;;;1.30;;
14052;SDS011;7101;51.600;7.310;2023-05-16T13:06:49;4.15;;;1.27;;
14052;SDS011;7101;51.600;7.310;2023-05-16T13:09:17;3.72;;;1.20;;
14052;SDS011;7101;51.600;7.310;2023-05-16T13:11:45;5.35;;;1.45;;
14052;SDS011;7101;51.600;7.310;2023-05-16T13:14:12;4.97;;;1.10;;
14052;SDS011;7101;51.600;7.310;2023-05-16T13:16:40;2.55;;;1.10;;
14052;SDS011;7101;51.600;7.310;2023-05-16T13:19:07;4.05;;;1.42;;
14052;SDS011;7101;51.600;7.310;2023-05-16T13:21:34;3.97;;;1.10;;
14052;SDS011;7101;51.600;7.310;2023-05-16T13:24:01;3.58;;;1.23;;
14052;SDS011;7101;51.600;7.310;2023-05-16T13:26:29;2.97;;;1.00;;
14052;SDS011;7101;51.600;7.310;2023-05-16T13:28:56;4.60;;;1.23;;
14052;SDS011;7101;51.600;7.310;2023-05-16T13:31:23;3.22;;;1.08;;
14052;SDS011;7101;51.600;7.310;2023-05-16T13:33:51;3.83;;;1.02;;
14052;SDS011;7101;51.600;7.310;2023-05-16T13:36:18;5.53;;;1.40;;
14052;SDS011;7101;51.600;7.310;2023-05-16T13:38:45;3.75;;;1.10;;
14052;SDS011;7101;51.600;7.310;2023-05-16T13:41:12;7.88;;;1.17;;
14052;SDS011;7101;51.600;7.310;2023-05-16T13:43:41;7.07;;;1.10;;
14052;SDS011;7101;51.600;7.310;2023-05-16T13:46:09;4.97;;;1.15;;
14052;SDS011;7101;51.600;7.310;2023-05-16T13:48:35;3.78;;;1.10;;
14052;SDS011;7101;51.600;7.310;2023-05-16T13:51:04;3.15;;;0.80;;
14052;SDS011;7101;51.600;7.310;2023-05-16T13:53:33;6.28;;;1.25;;
14052;SDS011;7101;51.600;7.310;2023-05-16T13:56:00;4.38;;;1.27;;
14052;SDS011;7101;51.600;7.310;2023-05-16T13:58:27;3.42;;;1.40;;
14052;SDS011;7101;51.600;7.310;2023-05-16T14:00:54;7.47;;;1.50;;
14052;SDS011;7101;51.600;7.310;2023-05-16T14:03:21;5.20;;;1.27;;
14052;SDS011;7101;51.600;7.310;2023-05-16T14:05:47;5.30;;;1.50;;
14052;SDS011;7101;51.600;7.310;2023-05-16T14:08:17;3.05;;;1.27;;
14052;SDS011;7101;51.600;7.310;2023-05-16T14:10:44;4.93;;;1.25;;
14052;SDS011;7101;51.600;7.310;2023-05-16T14:13:12;3.90;;;1.30;;
14052;SDS011;7101;51.600;7.310;2023-05-16T14:15:40;4.90;;;1.40;;
14052;SDS011;7101;51.600;7.310;2023-05-16T14:18:07;5.20;;;1.20;;
14052;SDS011;7101;51.600;7.310;2023-05-16T14:20:35;3.53;;;1.40;;
14052;SDS011;7101;51.600;7.310;2023-05-16T14:23:01;4.20;;;1.20;;
14052;SDS011;7101;51.600;7.310;2023-05-16T14:25:30;3.92;;;1.45;;
14052;SDS011;7101;51.600;7.310;2023-05-16T14:27:57;7.40;;;1.60;;
14052;SDS011;7101;51.600;7.310;2023-05-16T14:30:23;5.22;;;1.27;;
14052;SDS011;7101;51.600;7.310;2023-05-16T14:32:51;2.65;;;1.20;;
14052;SDS011;7101;51.600;7.310;2023-05-16T14:35:18;5.45;;;1.40;;
14052;SDS011;7101;51.600;7.310;2023-05-16T14:37:45;6.22;;;1.50;;
14052;SDS011;7101;51.600;7.310;2023-05-16T14:40:13;4.50;;;1.40;;
14052;SDS011;7101;51.600;7.310;2023-05-16T14:42:41;6.43;;;1.65;;
14052;SDS011;7101;51.600;7.310;2023-05-16T14:45:08;4.47;;;1.65;;
14052;SDS011;7101;51.600;7.310;2023-05-16T14:47:36;5.50;;;1.50;;
14052;SDS011;7101;51.600;7.310;2023-05-16T14:50:04;7.63;;;1.67;;
14052;SDS011;7101;51.600;7.310;2023-05-16T14:52:32;4.13;;;1.58;;
14052;SDS011;7101;51.600;7.310;2023-05-16T14:54:59;5.53;;;1.80;;
14052;SDS011;7101;51.600;7.310;2023-05-16T14:57:26;4.60;;;1.60;;
14052;SDS011;7101;51.600;7.310;2023-05-16T14:59:55;4.00;;;1.40;;
14052;SDS011;7101;51.600;7.310;2023-05-16T15:02:22;5.28;;;1.42;;
14052;SDS011;7101;51.600;7.310;2023-05-16T15:04:50;6.15;;;1.70;;
14052;SDS011;7101;51.600;7.310;2023-05-16T15:07:18;4.72;;;1.75;;
14052;SDS011;7101;51.600;7.310;2023-05-16T15:09:47;6.55;;;1.85;;